createdAt,value
2023-01-28T00:03:51.611Z,1.4
2023-01-28T00:08:54.026Z,1.4
2023-01-28T00:13:56.037Z,1.4
2023-01-28T00:18:58.004Z,1.4
2023-01-28T00:24:00.179Z,1.5
2023-01-28T00:29:02.403Z,1.4
2023-01-28T00:34:04.747Z,1.5
2023-01-28T00:39:06.752Z,1.6
2023-01-28T00:44:08.740Z,1.6
2023-01-28T00:49:10.782Z,1.6
2023-01-28T00:54:12.800Z,1.7
2023-01-28T00:59:14.771Z,1.7
2023-01-28T01:04:16.831Z,1.7
2023-01-28T01:09:18.838Z,1.6
2023-01-28T01:14:20.875Z,1.6
2023-01-28T01:19:22.822Z,1.6
2023-01-28T01:24:25.010Z,1.5
2023-01-28T01:29:27.108Z,1.4
2023-01-28T01:34:29.182Z,1.4
2023-01-28T01:39:31.148Z,1.3
2023-01-28T01:44:33.645Z,1.2
2023-01-28T01:49:35.640Z,1.2
2023-01-28T01:54:37.804Z,1.2
2023-01-28T01:59:39.984Z,1.1
2023-01-28T02:04:42.085Z,1.2
2023-01-28T02:09:44.310Z,1.2
2023-01-28T02:19:47.152Z,1.3
2023-01-28T02:24:49.237Z,1.4
2023-01-28T02:29:51.493Z,1.5
2023-01-28T02:34:53.729Z,1.5
2023-01-28T02:39:56.427Z,1.3
2023-01-28T02:44:59.358Z,1.3
2023-01-28T02:50:02.092Z,1.3
2023-01-28T02:55:04.383Z,1.3
2023-01-28T03:00:06.567Z,1.3
2023-01-28T03:05:08.638Z,1.3
2023-01-28T03:10:10.830Z,1.2
2023-01-28T03:15:13.856Z,1.2
2023-01-28T03:20:16.857Z,1.2
2023-01-28T03:25:19.527Z,1.2
2023-01-28T03:30:22.764Z,1.2
2023-01-28T03:35:25.523Z,1.3
2023-01-28T03:40:27.833Z,1.3
2023-01-28T03:45:29.953Z,1.4
2023-01-28T03:50:32.300Z,1.3
2023-01-28T03:55:34.379Z,1.3
2023-01-28T04:00:36.329Z,1.4
2023-01-28T04:05:38.269Z,1.4
2023-01-28T04:10:40.222Z,1.4
2023-01-28T04:15:42.546Z,1.3
2023-01-28T04:20:44.658Z,1.4
2023-01-28T04:25:48.957Z,1.3
2023-01-28T04:30:51.266Z,1.3
2023-01-28T04:35:53.684Z,1.4
2023-01-28T04:40:55.826Z,1.4
2023-01-28T04:45:57.961Z,1.3
2023-01-28T04:50:59.942Z,1.3
2023-01-28T04:56:01.952Z,1.4
2023-01-28T05:01:04.375Z,1.4
2023-01-28T05:06:10.629Z,1.4
2023-01-28T05:11:12.766Z,1.4
2023-01-28T05:16:14.774Z,1.4
2023-01-28T05:21:16.848Z,1.4
2023-01-28T05:26:18.850Z,1.4
2023-01-28T05:31:20.942Z,1.4
2023-01-28T05:36:23.184Z,1.4
2023-01-28T05:41:25.542Z,1.4
2023-01-28T05:46:28.003Z,1.4
2023-01-28T05:51:30.082Z,1.3
2023-01-28T05:56:32.226Z,1.4
2023-01-28T06:01:34.962Z,1.3
2023-01-28T06:06:37.673Z,1.4
2023-01-28T06:11:39.848Z,1.3
2023-01-28T06:16:42.556Z,1.3
2023-01-28T06:21:44.590Z,1.3
2023-01-28T06:27:30.261Z,1.3
2023-01-28T06:31:52.464Z,1.3
2023-01-28T06:36:55.418Z,1.4
2023-01-28T06:41:57.747Z,1.4
2023-01-28T06:47:00.016Z,1.3
2023-01-28T06:52:02.239Z,1.4
2023-01-28T06:57:04.560Z,1.4
2023-01-28T07:02:07.069Z,1.5
2023-01-28T07:07:09.313Z,1.5
2023-01-28T07:12:11.708Z,1.5
2023-01-28T07:17:14.348Z,1.6
2023-01-28T07:22:16.782Z,1.6
2023-01-28T07:27:19.061Z,1.7
2023-01-28T07:32:21.346Z,1.7
2023-01-28T07:37:23.715Z,1.9
2023-01-28T07:42:25.887Z,2
2023-01-28T07:47:29.276Z,2.2
2023-01-28T07:52:32.141Z,2.3
2023-01-28T07:57:34.256Z,2.3
2023-01-28T08:02:37.036Z,2.5
2023-01-28T08:07:39.646Z,2.4
2023-01-28T08:12:41.781Z,2.4
2023-01-28T08:17:43.839Z,2.4
2023-01-28T08:22:45.879Z,2.4
2023-01-28T08:27:48.875Z,2.5
2023-01-28T08:32:56.600Z,2.6
2023-01-28T08:37:59.147Z,2.5
2023-01-28T08:43:02.436Z,2.5
2023-01-28T08:48:05.803Z,2.5
2023-01-28T08:53:08.468Z,2.6
2023-01-28T08:58:11.352Z,2.6
2023-01-28T09:03:13.553Z,2.5
2023-01-28T09:08:15.799Z,2.8
2023-01-28T09:13:18.136Z,3
2023-01-28T09:18:20.312Z,3.4
2023-01-28T09:23:22.821Z,3.5
2023-01-28T09:28:25.238Z,3.3
2023-01-28T09:33:28.307Z,3.3
2023-01-28T09:38:30.819Z,3.3
2023-01-28T09:43:33.114Z,3.2
2023-01-28T09:48:35.577Z,3.3
2023-01-28T09:53:37.812Z,3.5
2023-01-28T09:58:40.518Z,3.4
2023-01-28T10:03:42.750Z,3.4
2023-01-28T10:08:45.114Z,3.6
2023-01-28T10:13:47.285Z,3.5
2023-01-28T10:18:49.364Z,3.5
2023-01-28T10:23:51.364Z,3.6
2023-01-28T10:28:53.713Z,3.5
2023-01-28T10:33:56.041Z,3.4
2023-01-28T10:39:00.021Z,3.4
2023-01-28T10:44:02.820Z,3.6
2023-01-28T10:49:05.362Z,3.6
2023-01-28T10:54:07.552Z,3.8
2023-01-28T10:59:10.047Z,3.9
2023-01-28T11:04:13.822Z,4.1
2023-01-28T11:09:16.852Z,4.1
2023-01-28T11:14:19.332Z,4.2
2023-01-28T11:19:22.642Z,4.3
2023-01-28T11:24:25.563Z,4.3
2023-01-28T11:29:28.161Z,4.3
2023-01-28T11:34:30.861Z,4.9
2023-01-28T11:39:34.275Z,4.6
2023-01-28T11:44:36.522Z,4.6
2023-01-28T11:49:39.776Z,4.3
2023-01-28T11:54:43.578Z,4.1
2023-01-28T11:59:46.324Z,4
2023-01-28T12:04:49.359Z,4.1
2023-01-28T12:09:51.639Z,4.1
2023-01-28T12:14:53.826Z,4.1
2023-01-28T12:19:55.993Z,3.9
2023-01-28T12:24:58.360Z,3.9
2023-01-28T12:30:00.492Z,3.8
2023-01-28T12:35:02.868Z,3.8
2023-01-28T12:40:05.177Z,3.9
2023-01-28T12:45:07.860Z,3.8
2023-01-28T12:50:09.995Z,3.8
2023-01-28T12:55:12.241Z,3.6
2023-01-28T13:00:15.659Z,3.5
2023-01-28T13:05:18.453Z,3.4
2023-01-28T13:10:21.936Z,3.5
2023-01-28T13:15:24.118Z,3.4
2023-01-28T13:20:26.675Z,3.4
2023-01-28T13:25:28.989Z,3.4
2023-01-28T13:30:31.225Z,3.3
2023-01-28T13:35:33.685Z,3.2
2023-01-28T13:40:36.855Z,3.4
2023-01-28T13:45:39.495Z,3.3
2023-01-28T13:50:44.453Z,3.2
2023-01-28T13:55:50.225Z,3.2
2023-01-28T14:00:52.683Z,3.2
2023-01-28T14:05:54.922Z,3.3
2023-01-28T14:10:57.146Z,3.3
2023-01-28T14:15:59.858Z,3.2
2023-01-28T14:21:02.347Z,3.2
2023-01-28T14:26:04.539Z,3.2
2023-01-28T14:31:09.408Z,3.3
2023-01-28T14:36:11.869Z,3.2
2023-01-28T14:41:14.129Z,3.2
2023-01-28T14:46:16.388Z,3.2
2023-01-28T14:51:18.930Z,3.1
2023-01-28T14:56:21.115Z,3
2023-01-28T15:01:23.308Z,3.1
2023-01-28T15:06:25.733Z,3.1
2023-01-28T15:11:28.235Z,3.1
2023-01-28T15:16:30.489Z,3.1
2023-01-28T15:21:32.516Z,3.2
2023-01-28T15:26:35.000Z,3.1
2023-01-28T15:31:37.126Z,3.1
2023-01-28T15:36:39.245Z,3
2023-01-28T15:41:41.574Z,3.1
2023-01-28T15:46:43.872Z,3
2023-01-28T15:51:46.057Z,3
2023-01-28T15:56:48.642Z,2.9
2023-01-28T16:01:50.762Z,3
2023-01-28T16:06:52.902Z,3
2023-01-28T16:11:55.156Z,3
2023-01-28T16:16:57.535Z,2.9
2023-01-28T16:22:00.965Z,2.9
2023-01-28T16:27:03.366Z,3
2023-01-28T16:32:05.974Z,2.9
2023-01-28T16:37:08.149Z,2.9
2023-01-28T16:42:10.575Z,2.9
2023-01-28T16:47:12.745Z,2.9
2023-01-28T16:52:14.850Z,2.9
2023-01-28T16:57:16.899Z,2.9
2023-01-28T17:02:18.973Z,2.9
2023-01-28T17:07:23.138Z,2.9
2023-01-28T17:12:25.206Z,2.8
2023-01-28T17:17:27.584Z,2.8
2023-01-28T17:22:30.006Z,2.8
2023-01-28T17:27:32.035Z,2.8
2023-01-28T17:32:34.087Z,2.8
2023-01-28T17:37:36.170Z,2.7
2023-01-28T17:42:38.424Z,2.7
2023-01-28T17:52:41.914Z,2.7
2023-01-28T17:57:43.989Z,2.7
2023-01-28T18:02:46.498Z,2.7
2023-01-28T18:07:49.073Z,2.7
2023-01-28T18:12:51.213Z,2.7
2023-01-28T18:17:53.558Z,2.6
2023-01-28T18:22:55.703Z,2.7
2023-01-28T18:27:57.866Z,2.6
2023-01-28T18:32:59.979Z,2.6
2023-01-28T18:38:02.078Z,2.6
2023-01-28T18:43:04.442Z,2.6
2023-01-28T18:48:08.220Z,2.6
2023-01-28T18:53:10.354Z,2.6
2023-01-28T18:58:14.029Z,2.7
2023-01-28T19:03:16.038Z,2.7
2023-01-28T19:08:18.751Z,2.8
2023-01-28T19:13:22.159Z,2.7
2023-01-28T19:18:24.572Z,2.7
2023-01-28T19:23:37.984Z,2.7
2023-01-28T19:28:31.597Z,2.6
2023-01-28T19:33:34.373Z,2.6
2023-01-28T19:38:36.671Z,2.6
2023-01-28T19:43:51.583Z,2.6
2023-01-28T19:48:43.778Z,2.6
2023-01-28T19:53:49.576Z,2.6
2023-01-28T19:58:52.478Z,2.6
2023-01-28T20:03:54.720Z,2.5
2023-01-28T20:08:56.747Z,2.5
2023-01-28T20:13:59.078Z,2.5
2023-01-28T20:19:02.179Z,2.4
2023-01-28T20:24:04.957Z,2.3
2023-01-28T20:29:07.563Z,2.3
2023-01-28T20:34:10.131Z,2.4
2023-01-28T20:39:12.851Z,2.3
2023-01-28T20:44:15.312Z,2.3
2023-01-28T20:49:17.904Z,2.2
2023-01-28T20:54:20.730Z,2.1
2023-01-28T20:59:23.675Z,2.1
2023-01-28T21:04:25.923Z,2.1
2023-01-28T21:09:54.882Z,2.1
2023-01-28T21:14:37.106Z,2.1
2023-01-28T21:19:46.389Z,2.1
2023-01-28T21:24:43.369Z,2.1
2023-01-28T21:29:45.675Z,2.1
2023-01-28T21:34:49.442Z,2.2
2023-01-28T21:39:51.631Z,2.2
2023-01-28T21:44:53.949Z,2.1
2023-01-28T21:49:56.113Z,2.1
2023-01-28T21:54:58.648Z,2.3
2023-01-28T22:00:00.764Z,2.3
2023-01-28T22:05:03.084Z,2.4
2023-01-28T22:10:05.257Z,2.4
2023-01-28T22:15:07.312Z,2.4
2023-01-28T22:20:09.684Z,2.2
2023-01-28T22:25:11.999Z,2.2
2023-01-28T22:30:16.486Z,2.4
2023-01-28T22:35:19.368Z,2.4
2023-01-28T22:40:21.854Z,2.5
2023-01-28T22:45:25.571Z,2.6
2023-01-28T22:50:27.747Z,2.5
2023-01-28T22:55:29.950Z,2.4
2023-01-28T23:00:32.100Z,2.4
2023-01-28T23:05:34.431Z,2.4
2023-01-28T23:10:50.385Z,2.3
2023-01-28T23:15:43.904Z,2.3
2023-01-28T23:20:45.894Z,2.3
2023-01-28T23:25:47.990Z,2.3
2023-01-28T23:30:51.560Z,2.3
2023-01-28T23:35:53.798Z,2.2
2023-01-28T23:40:56.009Z,2.3
2023-01-28T23:45:58.338Z,2.3
2023-01-28T23:51:00.440Z,2.3
2023-01-28T23:56:03.303Z,2.3
